createdAt,value
2023-05-09T00:02:38.281Z,13.40
2023-05-09T00:06:40.953Z,13.30
2023-05-09T00:10:44.964Z,12.13
2023-05-09T00:14:51.498Z,14.57
2023-05-09T00:18:54.156Z,14.33
2023-05-09T00:22:56.826Z,15.93
2023-05-09T00:27:01.566Z,13.70
2023-05-09T00:31:04.785Z,14.13
2023-05-09T00:35:08.746Z,14.17
2023-05-09T00:39:12.474Z,14.60
2023-05-09T00:43:16.794Z,16.30
2023-05-09T00:47:19.907Z,16.03
2023-05-09T00:51:23.041Z,16.33
2023-05-09T00:55:25.870Z,14.00
2023-05-09T00:59:30.197Z,14.73
2023-05-09T01:03:33.461Z,13.53
2023-05-09T01:07:42.373Z,13.17
2023-05-09T01:11:49.816Z,14.87
2023-05-09T01:15:59.950Z,14.00
2023-05-09T01:20:11.567Z,13.73
2023-05-09T01:24:33.246Z,13.00
2023-05-09T01:28:45.611Z,13.90
2023-05-09T01:32:52.934Z,13.67
2023-05-09T01:37:00.701Z,15.10
2023-05-09T01:41:05.313Z,13.83
2023-05-09T01:45:10.705Z,15.03
2023-05-09T01:49:14.839Z,12.47
2023-05-09T01:53:18.764Z,14.50
2023-05-09T01:57:22.690Z,13.50
2023-05-09T02:01:26.228Z,15.70
2023-05-09T02:05:31.936Z,17.07
2023-05-09T02:09:34.716Z,16.20
2023-05-09T02:13:38.258Z,17.17
2023-05-09T02:17:42.191Z,14.87
2023-05-09T02:21:46.277Z,16.60
2023-05-09T02:25:49.218Z,17.07
2023-05-09T02:29:56.208Z,18.93
2023-05-09T02:33:59.464Z,17.80
2023-05-09T02:38:04.202Z,17.77
2023-05-09T02:42:09.054Z,15.60
2023-05-09T02:46:11.904Z,16.67
2023-05-09T02:50:14.783Z,18.30
2023-05-09T02:54:19.494Z,17.43
2023-05-09T02:58:22.175Z,17.63
2023-05-09T03:02:24.922Z,20.35
2023-05-09T03:06:28.028Z,17.80
2023-05-09T03:10:32.041Z,18.33
2023-05-09T03:14:34.925Z,15.77
2023-05-09T03:18:38.917Z,18.13
2023-05-09T03:22:41.729Z,16.87
2023-05-09T03:26:48.368Z,19.90
2023-05-09T03:30:51.635Z,18.17
2023-05-09T03:34:57.405Z,19.17
2023-05-09T03:39:01.157Z,16.23
2023-05-09T03:43:05.699Z,17.17
2023-05-09T03:47:08.812Z,18.00
2023-05-09T03:51:15.388Z,18.60
2023-05-09T03:55:20.692Z,19.17
2023-05-09T03:59:24.852Z,18.23
2023-05-09T04:03:27.918Z,18.77
2023-05-09T04:07:31.127Z,20.00
2023-05-09T04:11:34.333Z,19.97
2023-05-09T04:15:38.932Z,20.20
2023-05-09T04:19:42.238Z,20.33
2023-05-09T04:23:45.437Z,17.90
2023-05-09T04:27:49.638Z,19.27
2023-05-09T04:31:54.222Z,19.87
2023-05-09T04:36:00.256Z,20.20
2023-05-09T04:40:04.313Z,19.53
2023-05-09T04:44:14.435Z,14.93
2023-05-09T04:48:19.779Z,19.77
2023-05-09T04:52:22.417Z,19.70
2023-05-09T04:56:25.120Z,21.23
2023-05-09T05:00:28.548Z,20.70
2023-05-09T05:04:32.741Z,21.63
2023-05-09T05:08:36.850Z,21.17
2023-05-09T05:12:39.538Z,21.10
2023-05-09T05:16:45.273Z,20.83
2023-05-09T05:20:49.640Z,20.40
2023-05-09T05:24:52.550Z,21.30
2023-05-09T05:28:57.036Z,21.07
2023-05-09T05:33:00.884Z,21.27
2023-05-09T05:37:05.013Z,21.37
2023-05-09T05:41:11.102Z,20.50
2023-05-09T05:45:15.409Z,22.03
2023-05-09T05:49:24.811Z,22.37
2023-05-09T05:53:30.362Z,22.23
2023-05-09T05:57:34.516Z,22.27
2023-05-09T06:01:37.632Z,23.77
2023-05-09T06:05:43.135Z,22.90
2023-05-09T06:09:48.176Z,24.40
2023-05-09T06:13:50.991Z,25.03
2023-05-09T06:17:53.766Z,24.63
2023-05-09T06:21:58.465Z,22.20
2023-05-09T06:26:02.478Z,24.57
2023-05-09T06:30:14.238Z,26.53
2023-05-09T06:34:27.285Z,22.90
2023-05-09T06:38:29.932Z,24.43
2023-05-09T06:42:34.017Z,27.07
2023-05-09T06:46:36.704Z,26.90
2023-05-09T06:50:39.369Z,27.43
2023-05-09T06:54:42.053Z,26.10
2023-05-09T06:58:46.108Z,28.63
2023-05-09T07:02:48.751Z,26.53
2023-05-09T07:06:51.418Z,27.83
2023-05-09T07:10:54.360Z,27.33
2023-05-09T07:14:58.618Z,27.37
2023-05-09T07:19:01.258Z,27.20
2023-05-09T07:23:04.194Z,30.10
2023-05-09T07:27:06.885Z,28.80
2023-05-09T07:31:10.944Z,26.83
2023-05-09T07:35:13.740Z,28.70
2023-05-09T07:39:16.747Z,27.50
2023-05-09T07:43:19.471Z,30.60
2023-05-09T07:47:23.602Z,28.77
2023-05-09T07:51:26.348Z,30.43
2023-05-09T07:55:29.050Z,29.90
2023-05-09T07:59:31.859Z,29.93
2023-05-09T08:03:35.902Z,31.70
2023-05-09T08:07:38.727Z,29.47
2023-05-09T08:11:41.513Z,29.37
2023-05-09T08:15:44.222Z,31.20
2023-05-09T08:19:48.247Z,29.73
2023-05-09T08:23:52.353Z,30.90
2023-05-09T08:27:55.025Z,32.93
2023-05-09T08:31:57.816Z,34.43
2023-05-09T08:36:02.391Z,37.13
2023-05-09T08:40:07.366Z,33.27
2023-05-09T08:44:10.828Z,37.27
2023-05-09T08:48:14.739Z,39.47
2023-05-09T08:52:19.325Z,40.67
2023-05-09T08:56:22.261Z,45.43
2023-05-09T09:00:26.639Z,47.03
2023-05-09T09:04:29.921Z,46.53
2023-05-09T09:08:36.269Z,46.87
2023-05-09T09:12:40.190Z,47.33
2023-05-09T09:16:45.595Z,46.37
2023-05-09T09:20:51.165Z,44.23
2023-05-09T09:24:55.304Z,44.10
2023-05-09T09:28:58.531Z,43.63
2023-05-09T09:33:01.327Z,42.63
2023-05-09T09:37:04.009Z,44.43
2023-05-09T09:41:08.068Z,39.53
2023-05-09T09:45:12.751Z,40.40
2023-05-09T09:49:18.456Z,41.33
2023-05-09T09:53:21.856Z,40.83
2023-05-09T09:57:39.937Z,41.97
2023-05-09T10:02:00.175Z,41.57
2023-05-09T10:06:03.104Z,42.53
2023-05-09T10:10:06.781Z,39.93
2023-05-09T10:14:11.529Z,42.43
2023-05-09T10:18:19.755Z,42.67
2023-05-09T10:22:23.136Z,40.57
2023-05-09T10:26:29.106Z,36.73
2023-05-09T10:30:41.075Z,38.00
2023-05-09T10:34:48.665Z,38.00
2023-05-09T10:38:54.320Z,35.63
2023-05-09T10:42:57.056Z,36.97
2023-05-09T10:47:02.574Z,36.63
2023-05-09T10:51:05.759Z,33.73
2023-05-09T10:55:11.414Z,30.73
2023-05-09T10:59:37.356Z,36.07
2023-05-09T11:03:58.379Z,31.27
2023-05-09T11:08:26.392Z,34.87
2023-05-09T11:12:29.034Z,38.47
2023-05-09T11:16:32.018Z,34.80
2023-05-09T11:20:36.606Z,41.27
2023-05-09T11:24:40.078Z,37.27
2023-05-09T11:28:42.880Z,34.53
2023-05-09T11:32:47.760Z,38.07
2023-05-09T11:36:51.799Z,37.77
2023-05-09T11:40:55.927Z,38.10
2023-05-09T11:44:59.412Z,39.17
2023-05-09T11:49:03.755Z,35.13
2023-05-09T11:53:12.343Z,36.13
2023-05-09T11:57:17.371Z,31.83
2023-05-09T12:01:21.440Z,26.27
2023-05-09T12:05:24.526Z,24.63
2023-05-09T12:09:30.830Z,21.93
2023-05-09T12:13:33.524Z,21.17
2023-05-09T12:17:36.948Z,16.40
2023-05-09T12:21:41.274Z,16.37
2023-05-09T12:25:50.223Z,15.50
2023-05-09T12:29:54.889Z,15.43
2023-05-09T12:33:57.878Z,12.80
2023-05-09T12:38:01.508Z,12.90
2023-05-09T12:42:13.180Z,9.17
2023-05-09T12:46:19.000Z,8.20
2023-05-09T12:50:21.755Z,10.50
2023-05-09T12:54:25.262Z,10.70
2023-05-09T12:58:32.079Z,9.63
2023-05-09T13:02:35.674Z,11.03
2023-05-09T13:06:49.047Z,14.73
2023-05-09T13:10:57.724Z,14.90
2023-05-09T13:15:11.323Z,16.30
2023-05-09T13:19:14.446Z,17.23
2023-05-09T13:23:17.166Z,16.33
2023-05-09T13:27:19.745Z,15.73
2023-05-09T13:31:23.991Z,16.20
2023-05-09T13:35:26.969Z,15.03
2023-05-09T13:39:29.603Z,15.90
2023-05-09T13:43:32.431Z,15.43
2023-05-09T13:47:38.041Z,14.63
2023-05-09T13:51:41.785Z,14.77
2023-05-09T13:55:45.620Z,14.77
2023-05-09T13:59:50.698Z,13.00
2023-05-09T14:03:54.713Z,13.10
2023-05-09T14:07:57.522Z,15.17
2023-05-09T14:12:00.158Z,15.53
2023-05-09T14:16:02.906Z,15.63
2023-05-09T14:20:08.369Z,14.53
2023-05-09T14:24:14.213Z,17.10
2023-05-09T14:28:18.473Z,15.40
2023-05-09T14:32:21.202Z,18.37
2023-05-09T14:36:25.215Z,19.17
2023-05-09T14:40:31.637Z,19.27
2023-05-09T14:44:34.273Z,19.47
2023-05-09T14:48:36.911Z,20.97
2023-05-09T14:52:41.021Z,18.53
2023-05-09T14:56:43.779Z,18.97
2023-05-09T15:00:47.294Z,18.50
2023-05-09T15:04:50.009Z,19.63
2023-05-09T15:08:54.155Z,17.83
2023-05-09T15:12:56.831Z,16.37
2023-05-09T15:17:02.726Z,16.77
2023-05-09T15:21:05.909Z,16.53
2023-05-09T15:25:11.032Z,16.93
2023-05-09T15:29:13.942Z,13.90
2023-05-09T15:33:17.568Z,14.87
2023-05-09T15:37:20.256Z,13.10
2023-05-09T15:41:24.325Z,14.97
2023-05-09T15:45:26.953Z,14.83
2023-05-09T15:49:29.937Z,16.17
2023-05-09T15:53:32.644Z,11.20
2023-05-09T15:57:36.690Z,10.93
2023-05-09T16:01:39.464Z,9.93
2023-05-09T16:05:43.715Z,10.23
2023-05-09T16:09:56.858Z,8.27
2023-05-09T16:14:01.049Z,8.23
2023-05-09T16:18:03.793Z,7.60
2023-05-09T16:22:06.580Z,7.00
2023-05-09T16:26:09.213Z,7.50
2023-05-09T16:30:14.724Z,11.10
2023-05-09T16:34:17.638Z,8.73
2023-05-09T16:38:20.552Z,9.13
2023-05-09T16:42:23.454Z,9.50
2023-05-09T16:46:27.492Z,9.57
2023-05-09T16:50:30.208Z,8.13
2023-05-09T16:54:32.980Z,7.83
2023-05-09T16:58:36.810Z,10.43
2023-05-09T17:02:41.564Z,7.97
2023-05-09T17:06:44.251Z,9.30
2023-05-09T17:10:47.077Z,8.10
2023-05-09T17:14:49.795Z,8.20
2023-05-09T17:18:53.796Z,6.77
2023-05-09T17:22:56.505Z,6.83
2023-05-09T17:26:59.700Z,7.83
2023-05-09T17:31:03.307Z,6.57
2023-05-09T17:35:08.224Z,4.77
2023-05-09T17:39:11.372Z,5.73
2023-05-09T17:43:14.158Z,4.67
2023-05-09T17:47:17.248Z,4.37
2023-05-09T17:51:21.856Z,4.07
2023-05-09T17:55:24.505Z,3.90
2023-05-09T17:59:27.139Z,3.20
2023-05-09T18:03:32.119Z,3.97
2023-05-09T18:07:36.411Z,4.40
2023-05-09T18:11:39.445Z,4.30
2023-05-09T18:15:42.140Z,3.30
2023-05-09T18:19:44.832Z,4.20
2023-05-09T18:23:48.807Z,5.57
2023-05-09T18:27:51.637Z,4.80
2023-05-09T18:31:56.012Z,3.20
2023-05-09T18:35:58.922Z,2.90
2023-05-09T18:40:03.159Z,2.97
2023-05-09T18:44:06.156Z,3.30
2023-05-09T18:48:08.784Z,3.80
2023-05-09T18:52:11.608Z,3.00
2023-05-09T18:56:17.162Z,3.47
2023-05-09T19:00:19.942Z,4.10
2023-05-09T19:04:22.719Z,3.90
2023-05-09T19:08:26.128Z,4.13
2023-05-09T19:12:30.181Z,3.60
2023-05-09T19:16:33.006Z,3.67
2023-05-09T19:20:35.731Z,4.07
2023-05-09T19:24:54.630Z,5.87
2023-05-09T19:29:00.591Z,8.77
2023-05-09T19:33:03.305Z,7.03
2023-05-09T19:37:06.093Z,5.90
2023-05-09T19:41:08.738Z,5.30
2023-05-09T19:45:13.439Z,5.00
2023-05-09T19:49:18.018Z,4.27
2023-05-09T19:53:20.860Z,4.97
2023-05-09T19:57:23.962Z,5.93
2023-05-09T20:01:28.244Z,6.27
2023-05-09T20:05:31.048Z,4.93
2023-05-09T20:09:33.896Z,5.20
2023-05-09T20:13:36.587Z,5.40
2023-05-09T20:17:40.617Z,5.67
2023-05-09T20:21:43.529Z,5.17
2023-05-09T20:25:46.161Z,5.27
2023-05-09T20:29:48.810Z,5.27
2023-05-09T20:33:54.468Z,5.37
2023-05-09T20:37:57.202Z,6.77
2023-05-09T20:42:02.259Z,6.73
2023-05-09T20:46:05.170Z,6.23
2023-05-09T20:50:10.380Z,6.53
2023-05-09T20:54:13.060Z,5.60
2023-05-09T20:58:15.710Z,6.50
2023-05-09T21:02:18.418Z,7.13
2023-05-09T21:06:22.444Z,5.70
2023-05-09T21:10:25.858Z,6.00
2023-05-09T21:14:28.573Z,5.87
2023-05-09T21:18:31.278Z,6.80
2023-05-09T21:22:35.259Z,5.90
2023-05-09T21:26:37.871Z,6.07
2023-05-09T21:30:40.524Z,6.07
2023-05-09T21:34:43.804Z,6.37
2023-05-09T21:38:47.754Z,6.30
2023-05-09T21:42:50.564Z,6.23
2023-05-09T21:46:53.268Z,7.53
2023-05-09T21:50:56.008Z,6.30
2023-05-09T21:55:00.419Z,6.57
2023-05-09T21:59:03.070Z,7.47
2023-05-09T22:03:05.864Z,7.17
2023-05-09T22:07:08.842Z,17.37
2023-05-09T22:11:14.648Z,10.13
2023-05-09T22:15:17.833Z,9.27
2023-05-09T22:19:20.698Z,10.10
2023-05-09T22:23:23.313Z,11.13
2023-05-09T22:27:27.613Z,9.67
2023-05-09T22:31:30.280Z,9.73
2023-05-09T22:35:32.946Z,9.10
2023-05-09T22:39:35.559Z,8.07
2023-05-09T22:43:39.908Z,11.30
2023-05-09T22:47:42.731Z,11.77
2023-05-09T22:51:45.601Z,11.40
2023-05-09T22:55:48.280Z,12.07
2023-05-09T22:59:53.379Z,8.87
2023-05-09T23:03:56.040Z,11.83
2023-05-09T23:07:58.763Z,9.27
2023-05-09T23:12:02.582Z,9.70
2023-05-09T23:16:07.304Z,10.20
2023-05-09T23:20:11.531Z,12.90
2023-05-09T23:24:14.157Z,11.17
2023-05-09T23:28:16.828Z,9.83
2023-05-09T23:32:20.919Z,11.10
2023-05-09T23:36:23.611Z,10.87
2023-05-09T23:40:26.307Z,9.00
2023-05-09T23:44:28.976Z,9.13
2023-05-09T23:48:32.964Z,8.23
2023-05-09T23:52:35.914Z,6.40
2023-05-09T23:56:38.643Z,7.97
